sensor_id;sensor_type;location;lat;lon;timestamp;P1;durP1;ratioP1;P2;durP2;ratioP2
77678;SDS011;66835;49.478;10.724;2023-04-28T00:00:44;0.75;;;0.63;;
77678;SDS011;66835;49.478;10.724;2023-04-28T00:03:12;0.40;;;0.40;;
77678;SDS011;66835;49.478;10.724;2023-04-28T00:05:38;0.40;;;0.40;;
77678;SDS011;66835;49.478;10.724;2023-04-28T00:08:03;0.40;;;0.40;;
77678;SDS011;66835;49.478;10.724;2023-04-28T00:10:29;1.05;;;0.60;;
77678;SDS011;66835;49.478;10.724;2023-04-28T00:12:54;0.80;;;0.43;;
77678;SDS011;66835;49.478;10.724;2023-04-28T00:15:20;0.43;;;0.43;;
77678;SDS011;66835;49.478;10.724;2023-04-28T00:17:45;0.57;;;0.40;;
77678;SDS011;66835;49.478;10.724;2023-04-28T00:20:12;0.63;;;0.60;;
77678;SDS011;66835;49.478;10.724;2023-04-28T00:22:37;0.43;;;0.43;;
77678;SDS011;66835;49.478;10.724;2023-04-28T00:25:03;0.50;;;0.50;;
77678;SDS011;66835;49.478;10.724;2023-04-28T00:27:29;0.63;;;0.50;;
77678;SDS011;66835;49.478;10.724;2023-04-28T00:29:55;0.50;;;0.50;;
77678;SDS011;66835;49.478;10.724;2023-04-28T00:32:20;0.65;;;0.50;;
77678;SDS011;66835;49.478;10.724;2023-04-28T00:34:45;0.68;;;0.60;;
77678;SDS011;66835;49.478;10.724;2023-04-28T00:37:12;0.50;;;0.50;;
77678;SDS011;66835;49.478;10.724;2023-04-28T00:39:37;0.82;;;0.60;;
77678;SDS011;66835;49.478;10.724;2023-04-28T00:42:03;0.28;;;0.28;;
77678;SDS011;66835;49.478;10.724;2023-04-28T00:44:28;1.20;;;0.57;;
77678;SDS011;66835;49.478;10.724;2023-04-28T00:46:54;0.57;;;0.50;;
77678;SDS011;66835;49.478;10.724;2023-04-28T00:49:20;0.38;;;0.38;;
77678;SDS011;66835;49.478;10.724;2023-04-28T00:51:45;0.60;;;0.60;;
77678;SDS011;66835;49.478;10.724;2023-04-28T00:54:13;0.43;;;0.43;;
77678;SDS011;66835;49.478;10.724;2023-04-28T00:56:38;0.50;;;0.47;;
77678;SDS011;66835;49.478;10.724;2023-04-28T00:59:04;0.75;;;0.60;;
77678;SDS011;66835;49.478;10.724;2023-04-28T01:01:29;0.40;;;0.40;;
77678;SDS011;66835;49.478;10.724;2023-04-28T01:03:55;0.30;;;0.30;;
77678;SDS011;66835;49.478;10.724;2023-04-28T01:06:20;0.52;;;0.50;;
77678;SDS011;66835;49.478;10.724;2023-04-28T01:08:47;0.95;;;0.57;;
77678;SDS011;66835;49.478;10.724;2023-04-28T01:11:14;1.17;;;0.60;;
77678;SDS011;66835;49.478;10.724;2023-04-28T01:13:39;0.40;;;0.40;;
77678;SDS011;66835;49.478;10.724;2023-04-28T01:16:05;0.60;;;0.50;;
77678;SDS011;66835;49.478;10.724;2023-04-28T01:18:31;1.05;;;0.60;;
77678;SDS011;66835;49.478;10.724;2023-04-28T01:20:57;0.63;;;0.60;;
77678;SDS011;66835;49.478;10.724;2023-04-28T01:23:22;0.50;;;0.50;;
77678;SDS011;66835;49.478;10.724;2023-04-28T01:25:49;0.40;;;0.40;;
77678;SDS011;66835;49.478;10.724;2023-04-28T01:28:14;0.55;;;0.50;;
77678;SDS011;66835;49.478;10.724;2023-04-28T01:30:40;0.52;;;0.50;;
77678;SDS011;66835;49.478;10.724;2023-04-28T01:33:05;0.52;;;0.50;;
77678;SDS011;66835;49.478;10.724;2023-04-28T01:35:31;0.68;;;0.50;;
77678;SDS011;66835;49.478;10.724;2023-04-28T01:37:56;0.50;;;0.50;;
77678;SDS011;66835;49.478;10.724;2023-04-28T01:40:21;0.52;;;0.50;;
77678;SDS011;66835;49.478;10.724;2023-04-28T01:42:48;0.50;;;0.50;;
77678;SDS011;66835;49.478;10.724;2023-04-28T01:45:13;0.60;;;0.60;;
77678;SDS011;66835;49.478;10.724;2023-04-28T01:47:39;0.50;;;0.50;;
77678;SDS011;66835;49.478;10.724;2023-04-28T01:50:05;0.50;;;0.50;;
77678;SDS011;66835;49.478;10.724;2023-04-28T01:52:31;0.68;;;0.60;;
77678;SDS011;66835;49.478;10.724;2023-04-28T01:54:56;0.67;;;0.40;;
77678;SDS011;66835;49.478;10.724;2023-04-28T01:57:21;0.40;;;0.40;;
77678;SDS011;66835;49.478;10.724;2023-04-28T01:59:48;0.52;;;0.50;;
77678;SDS011;66835;49.478;10.724;2023-04-28T02:02:14;1.30;;;0.60;;
77678;SDS011;66835;49.478;10.724;2023-04-28T02:04:39;0.52;;;0.52;;
77678;SDS011;66835;49.478;10.724;2023-04-28T02:07:05;0.57;;;0.57;;
77678;SDS011;66835;49.478;10.724;2023-04-28T02:09:31;0.50;;;0.50;;
77678;SDS011;66835;49.478;10.724;2023-04-28T02:11:56;0.50;;;0.50;;
77678;SDS011;66835;49.478;10.724;2023-04-28T02:14:21;0.35;;;0.35;;
77678;SDS011;66835;49.478;10.724;2023-04-28T02:16:49;0.50;;;0.50;;
77678;SDS011;66835;49.478;10.724;2023-04-28T02:19:15;0.52;;;0.50;;
77678;SDS011;66835;49.478;10.724;2023-04-28T02:21:40;0.50;;;0.50;;
77678;SDS011;66835;49.478;10.724;2023-04-28T02:24:06;0.70;;;0.50;;
77678;SDS011;66835;49.478;10.724;2023-04-28T02:26:32;0.40;;;0.40;;
77678;SDS011;66835;49.478;10.724;2023-04-28T02:28:57;0.40;;;0.40;;
77678;SDS011;66835;49.478;10.724;2023-04-28T02:31:23;0.60;;;0.50;;
77678;SDS011;66835;49.478;10.724;2023-04-28T02:33:49;0.50;;;0.50;;
77678;SDS011;66835;49.478;10.724;2023-04-28T02:36:15;0.40;;;0.40;;
77678;SDS011;66835;49.478;10.724;2023-04-28T02:38:48;0.57;;;0.50;;
77678;SDS011;66835;49.478;10.724;2023-04-28T02:41:14;0.50;;;0.50;;
77678;SDS011;66835;49.478;10.724;2023-04-28T02:43:39;0.40;;;0.40;;
77678;SDS011;66835;49.478;10.724;2023-04-28T02:46:05;0.40;;;0.40;;
77678;SDS011;66835;49.478;10.724;2023-04-28T02:48:30;0.50;;;0.50;;
77678;SDS011;66835;49.478;10.724;2023-04-28T02:50:58;0.50;;;0.50;;
77678;SDS011;66835;49.478;10.724;2023-04-28T02:53:24;0.60;;;0.60;;
77678;SDS011;66835;49.478;10.724;2023-04-28T02:55:50;0.47;;;0.43;;
77678;SDS011;66835;49.478;10.724;2023-04-28T02:58:15;0.60;;;0.60;;
77678;SDS011;66835;49.478;10.724;2023-04-28T03:00:41;0.55;;;0.55;;
77678;SDS011;66835;49.478;10.724;2023-04-28T03:03:07;0.60;;;0.57;;
77678;SDS011;66835;49.478;10.724;2023-04-28T03:05:32;0.45;;;0.45;;
77678;SDS011;66835;49.478;10.724;2023-04-28T03:07:59;0.50;;;0.50;;
77678;SDS011;66835;49.478;10.724;2023-04-28T03:10:24;0.60;;;0.60;;
77678;SDS011;66835;49.478;10.724;2023-04-28T03:12:50;0.60;;;0.60;;
77678;SDS011;66835;49.478;10.724;2023-04-28T03:15:15;0.50;;;0.50;;
77678;SDS011;66835;49.478;10.724;2023-04-28T03:17:41;0.65;;;0.65;;
77678;SDS011;66835;49.478;10.724;2023-04-28T03:20:07;0.88;;;0.50;;
77678;SDS011;66835;49.478;10.724;2023-04-28T03:22:33;0.50;;;0.50;;
77678;SDS011;66835;49.478;10.724;2023-04-28T03:25:00;0.50;;;0.50;;
77678;SDS011;66835;49.478;10.724;2023-04-28T03:27:26;0.65;;;0.52;;
77678;SDS011;66835;49.478;10.724;2023-04-28T03:29:51;0.55;;;0.50;;
77678;SDS011;66835;49.478;10.724;2023-04-28T03:32:17;0.50;;;0.47;;
77678;SDS011;66835;49.478;10.724;2023-04-28T03:34:42;0.40;;;0.40;;
77678;SDS011;66835;49.478;10.724;2023-04-28T03:37:08;0.50;;;0.50;;
77678;SDS011;66835;49.478;10.724;2023-04-28T03:39:33;0.50;;;0.50;;
77678;SDS011;66835;49.478;10.724;2023-04-28T03:42:00;0.50;;;0.50;;
77678;SDS011;66835;49.478;10.724;2023-04-28T03:44:25;0.50;;;0.50;;
77678;SDS011;66835;49.478;10.724;2023-04-28T03:46:51;0.70;;;0.50;;
77678;SDS011;66835;49.478;10.724;2023-04-28T03:49:16;0.50;;;0.50;;
77678;SDS011;66835;49.478;10.724;2023-04-28T03:51:41;0.28;;;0.28;;
77678;SDS011;66835;49.478;10.724;2023-04-28T03:54:07;0.40;;;0.40;;
77678;SDS011;66835;49.478;10.724;2023-04-28T03:56:32;0.40;;;0.40;;
77678;SDS011;66835;49.478;10.724;2023-04-28T03:58:59;0.50;;;0.50;;
77678;SDS011;66835;49.478;10.724;2023-04-28T04:01:25;0.47;;;0.47;;
77678;SDS011;66835;49.478;10.724;2023-04-28T04:03:50;0.63;;;0.63;;
77678;SDS011;66835;49.478;10.724;2023-04-28T04:06:15;0.43;;;0.43;;
77678;SDS011;66835;49.478;10.724;2023-04-28T04:08:41;1.50;;;0.50;;
77678;SDS011;66835;49.478;10.724;2023-04-28T04:11:07;0.50;;;0.50;;
77678;SDS011;66835;49.478;10.724;2023-04-28T04:13:32;0.43;;;0.43;;
77678;SDS011;66835;49.478;10.724;2023-04-28T04:15:59;0.65;;;0.50;;
77678;SDS011;66835;49.478;10.724;2023-04-28T04:18:24;0.50;;;0.50;;
77678;SDS011;66835;49.478;10.724;2023-04-28T04:20:50;0.40;;;0.40;;
77678;SDS011;66835;49.478;10.724;2023-04-28T04:23:18;0.40;;;0.40;;
77678;SDS011;66835;49.478;10.724;2023-04-28T04:25:43;0.70;;;0.60;;
77678;SDS011;66835;49.478;10.724;2023-04-28T04:28:08;0.50;;;0.50;;
77678;SDS011;66835;49.478;10.724;2023-04-28T04:30:34;0.50;;;0.50;;
77678;SDS011;66835;49.478;10.724;2023-04-28T04:33:00;0.93;;;0.70;;
77678;SDS011;66835;49.478;10.724;2023-04-28T04:35:26;0.40;;;0.40;;
77678;SDS011;66835;49.478;10.724;2023-04-28T04:37:51;0.50;;;0.50;;
77678;SDS011;66835;49.478;10.724;2023-04-28T04:40:17;0.50;;;0.50;;
77678;SDS011;66835;49.478;10.724;2023-04-28T04:42:42;0.50;;;0.50;;
77678;SDS011;66835;49.478;10.724;2023-04-28T04:45:08;0.47;;;0.40;;
77678;SDS011;66835;49.478;10.724;2023-04-28T04:47:33;0.40;;;0.40;;
77678;SDS011;66835;49.478;10.724;2023-04-28T04:50:00;0.50;;;0.50;;
77678;SDS011;66835;49.478;10.724;2023-04-28T04:52:25;0.50;;;0.50;;
77678;SDS011;66835;49.478;10.724;2023-04-28T04:54:51;0.50;;;0.50;;
77678;SDS011;66835;49.478;10.724;2023-04-28T04:57:16;0.60;;;0.60;;
77678;SDS011;66835;49.478;10.724;2023-04-28T04:59:42;0.60;;;0.60;;
77678;SDS011;66835;49.478;10.724;2023-04-28T05:02:07;0.55;;;0.50;;
77678;SDS011;66835;49.478;10.724;2023-04-28T05:04:32;0.60;;;0.50;;
77678;SDS011;66835;49.478;10.724;2023-04-28T05:06:59;0.45;;;0.40;;
77678;SDS011;66835;49.478;10.724;2023-04-28T05:09:25;0.88;;;0.50;;
77678;SDS011;66835;49.478;10.724;2023-04-28T05:11:50;1.50;;;0.93;;
77678;SDS011;66835;49.478;10.724;2023-04-28T05:14:16;1.67;;;0.90;;
77678;SDS011;66835;49.478;10.724;2023-04-28T05:16:41;1.30;;;0.90;;
77678;SDS011;66835;49.478;10.724;2023-04-28T05:19:07;0.95;;;0.70;;
77678;SDS011;66835;49.478;10.724;2023-04-28T05:21:33;0.57;;;0.50;;
77678;SDS011;66835;49.478;10.724;2023-04-28T05:23:59;0.60;;;0.57;;
77678;SDS011;66835;49.478;10.724;2023-04-28T05:26:25;0.55;;;0.50;;
77678;SDS011;66835;49.478;10.724;2023-04-28T05:28:50;0.55;;;0.50;;
77678;SDS011;66835;49.478;10.724;2023-04-28T05:31:16;0.50;;;0.50;;
77678;SDS011;66835;49.478;10.724;2023-04-28T05:33:41;0.73;;;0.52;;
77678;SDS011;66835;49.478;10.724;2023-04-28T05:36:07;2.80;;;1.60;;
77678;SDS011;66835;49.478;10.724;2023-04-28T05:38:32;1.90;;;1.08;;
77678;SDS011;66835;49.478;10.724;2023-04-28T05:40:59;0.95;;;0.73;;
77678;SDS011;66835;49.478;10.724;2023-04-28T05:43:26;1.10;;;0.70;;
77678;SDS011;66835;49.478;10.724;2023-04-28T05:45:51;0.60;;;0.60;;
77678;SDS011;66835;49.478;10.724;2023-04-28T05:48:16;0.60;;;0.60;;
77678;SDS011;66835;49.478;10.724;2023-04-28T05:50:42;0.73;;;0.60;;
77678;SDS011;66835;49.478;10.724;2023-04-28T05:53:07;0.50;;;0.50;;
77678;SDS011;66835;49.478;10.724;2023-04-28T05:55:33;0.63;;;0.50;;
77678;SDS011;66835;49.478;10.724;2023-04-28T05:58:01;0.50;;;0.50;;
77678;SDS011;66835;49.478;10.724;2023-04-28T06:00:27;0.40;;;0.40;;
77678;SDS011;66835;49.478;10.724;2023-04-28T06:02:52;0.50;;;0.50;;
77678;SDS011;66835;49.478;10.724;2023-04-28T06:05:18;0.60;;;0.60;;
77678;SDS011;66835;49.478;10.724;2023-04-28T06:07:43;0.40;;;0.40;;
77678;SDS011;66835;49.478;10.724;2023-04-28T06:10:09;0.50;;;0.50;;
77678;SDS011;66835;49.478;10.724;2023-04-28T06:12:34;0.50;;;0.50;;
77678;SDS011;66835;49.478;10.724;2023-04-28T06:15:02;0.80;;;0.50;;
77678;SDS011;66835;49.478;10.724;2023-04-28T06:17:27;0.52;;;0.52;;
77678;SDS011;66835;49.478;10.724;2023-04-28T06:19:55;0.73;;;0.50;;
77678;SDS011;66835;49.478;10.724;2023-04-28T06:22:22;0.50;;;0.50;;
77678;SDS011;66835;49.478;10.724;2023-04-28T06:24:48;0.60;;;0.60;;
77678;SDS011;66835;49.478;10.724;2023-04-28T06:27:13;0.70;;;0.70;;
77678;SDS011;66835;49.478;10.724;2023-04-28T06:29:39;0.50;;;0.50;;
77678;SDS011;66835;49.478;10.724;2023-04-28T06:32:05;0.50;;;0.50;;
77678;SDS011;66835;49.478;10.724;2023-04-28T06:34:31;0.50;;;0.50;;
77678;SDS011;66835;49.478;10.724;2023-04-28T06:36:57;0.70;;;0.60;;
77678;SDS011;66835;49.478;10.724;2023-04-28T06:39:22;0.60;;;0.60;;
77678;SDS011;66835;49.478;10.724;2023-04-28T06:41:47;0.53;;;0.53;;
77678;SDS011;66835;49.478;10.724;2023-04-28T06:44:13;0.60;;;0.60;;
77678;SDS011;66835;49.478;10.724;2023-04-28T06:46:38;0.57;;;0.57;;
77678;SDS011;66835;49.478;10.724;2023-04-28T06:49:05;0.50;;;0.50;;
77678;SDS011;66835;49.478;10.724;2023-04-28T06:51:30;0.43;;;0.40;;
77678;SDS011;66835;49.478;10.724;2023-04-28T06:53:59;0.40;;;0.40;;
77678;SDS011;66835;49.478;10.724;2023-04-28T06:56:24;0.47;;;0.47;;
77678;SDS011;66835;49.478;10.724;2023-04-28T06:58:49;0.50;;;0.50;;
77678;SDS011;66835;49.478;10.724;2023-04-28T07:01:15;0.52;;;0.50;;
77678;SDS011;66835;49.478;10.724;2023-04-28T07:03:40;0.55;;;0.50;;
77678;SDS011;66835;49.478;10.724;2023-04-28T07:06:07;0.47;;;0.47;;
77678;SDS011;66835;49.478;10.724;2023-04-28T07:08:33;0.63;;;0.40;;
77678;SDS011;66835;49.478;10.724;2023-04-28T07:10:58;0.32;;;0.32;;
77678;SDS011;66835;49.478;10.724;2023-04-28T07:13:23;0.40;;;0.40;;
77678;SDS011;66835;49.478;10.724;2023-04-28T07:15:49;0.47;;;0.47;;
77678;SDS011;66835;49.478;10.724;2023-04-28T07:18:14;0.82;;;0.45;;
77678;SDS011;66835;49.478;10.724;2023-04-28T07:20:40;0.52;;;0.40;;
77678;SDS011;66835;49.478;10.724;2023-04-28T07:23:06;0.50;;;0.50;;
77678;SDS011;66835;49.478;10.724;2023-04-28T07:25:32;0.47;;;0.47;;
77678;SDS011;66835;49.478;10.724;2023-04-28T07:27:57;0.50;;;0.50;;
77678;SDS011;66835;49.478;10.724;2023-04-28T07:30:23;0.63;;;0.60;;
77678;SDS011;66835;49.478;10.724;2023-04-28T07:32:48;0.63;;;0.63;;
77678;SDS011;66835;49.478;10.724;2023-04-28T07:35:13;0.50;;;0.50;;
77678;SDS011;66835;49.478;10.724;2023-04-28T07:37:39;0.50;;;0.50;;
77678;SDS011;66835;49.478;10.724;2023-04-28T07:40:06;0.50;;;0.50;;
77678;SDS011;66835;49.478;10.724;2023-04-28T07:42:32;0.70;;;0.70;;
77678;SDS011;66835;49.478;10.724;2023-04-28T07:44:58;0.45;;;0.45;;
77678;SDS011;66835;49.478;10.724;2023-04-28T07:47:23;0.67;;;0.50;;
77678;SDS011;66835;49.478;10.724;2023-04-28T07:49:49;0.60;;;0.60;;
77678;SDS011;66835;49.478;10.724;2023-04-28T07:52:14;0.50;;;0.50;;
77678;SDS011;66835;49.478;10.724;2023-04-28T07:54:40;0.60;;;0.60;;
77678;SDS011;66835;49.478;10.724;2023-04-28T07:57:07;0.52;;;0.52;;
77678;SDS011;66835;49.478;10.724;2023-04-28T07:59:32;0.40;;;0.40;;
77678;SDS011;66835;49.478;10.724;2023-04-28T08:01:58;0.63;;;0.45;;
77678;SDS011;66835;49.478;10.724;2023-04-28T08:04:23;0.50;;;0.50;;
77678;SDS011;66835;49.478;10.724;2023-04-28T08:06:49;0.50;;;0.50;;
77678;SDS011;66835;49.478;10.724;2023-04-28T08:09:14;0.40;;;0.40;;
77678;SDS011;66835;49.478;10.724;2023-04-28T08:11:40;0.50;;;0.50;;
77678;SDS011;66835;49.478;10.724;2023-04-28T08:14:07;0.50;;;0.50;;
77678;SDS011;66835;49.478;10.724;2023-04-28T08:16:32;0.52;;;0.52;;
77678;SDS011;66835;49.478;10.724;2023-04-28T08:19:00;0.50;;;0.50;;
77678;SDS011;66835;49.478;10.724;2023-04-28T08:21:26;0.52;;;0.52;;
77678;SDS011;66835;49.478;10.724;2023-04-28T08:23:51;0.40;;;0.40;;
77678;SDS011;66835;49.478;10.724;2023-04-28T08:26:17;0.47;;;0.47;;
77678;SDS011;66835;49.478;10.724;2023-04-28T08:28:42;0.55;;;0.55;;
77678;SDS011;66835;49.478;10.724;2023-04-28T08:31:09;0.70;;;0.70;;
77678;SDS011;66835;49.478;10.724;2023-04-28T08:33:35;0.60;;;0.60;;
77678;SDS011;66835;49.478;10.724;2023-04-28T08:36:00;0.30;;;0.30;;
77678;SDS011;66835;49.478;10.724;2023-04-28T08:38:25;0.68;;;0.68;;
77678;SDS011;66835;49.478;10.724;2023-04-28T08:40:51;0.40;;;0.40;;
77678;SDS011;66835;49.478;10.724;2023-04-28T08:43:16;0.57;;;0.40;;
77678;SDS011;66835;49.478;10.724;2023-04-28T08:45:42;0.38;;;0.38;;
77678;SDS011;66835;49.478;10.724;2023-04-28T08:48:13;0.70;;;0.50;;
77678;SDS011;66835;49.478;10.724;2023-04-28T08:50:43;0.30;;;0.30;;
77678;SDS011;66835;49.478;10.724;2023-04-28T08:53:13;0.60;;;0.45;;
77678;SDS011;66835;49.478;10.724;2023-04-28T08:55:38;0.45;;;0.45;;
77678;SDS011;66835;49.478;10.724;2023-04-28T08:58:04;0.50;;;0.50;;
77678;SDS011;66835;49.478;10.724;2023-04-28T09:00:29;0.60;;;0.60;;
77678;SDS011;66835;49.478;10.724;2023-04-28T09:02:55;0.52;;;0.50;;
77678;SDS011;66835;49.478;10.724;2023-04-28T09:05:22;0.53;;;0.43;;
77678;SDS011;66835;49.478;10.724;2023-04-28T09:07:47;0.30;;;0.30;;
77678;SDS011;66835;49.478;10.724;2023-04-28T09:10:18;0.30;;;0.30;;
77678;SDS011;66835;49.478;10.724;2023-04-28T09:12:45;0.50;;;0.50;;
77678;SDS011;66835;49.478;10.724;2023-04-28T09:15:14;0.60;;;0.60;;
77678;SDS011;66835;49.478;10.724;2023-04-28T09:17:49;0.40;;;0.40;;
77678;SDS011;66835;49.478;10.724;2023-04-28T09:20:19;0.43;;;0.43;;
77678;SDS011;66835;49.478;10.724;2023-04-28T09:22:46;0.55;;;0.50;;
77678;SDS011;66835;49.478;10.724;2023-04-28T09:25:13;0.45;;;0.45;;
77678;SDS011;66835;49.478;10.724;2023-04-28T09:27:39;0.43;;;0.40;;
77678;SDS011;66835;49.478;10.724;2023-04-28T09:30:04;0.75;;;0.50;;
77678;SDS011;66835;49.478;10.724;2023-04-28T09:32:31;0.68;;;0.60;;
77678;SDS011;66835;49.478;10.724;2023-04-28T09:34:56;0.57;;;0.50;;
77678;SDS011;66835;49.478;10.724;2023-04-28T09:37:24;0.40;;;0.40;;
77678;SDS011;66835;49.478;10.724;2023-04-28T09:39:52;0.40;;;0.40;;
77678;SDS011;66835;49.478;10.724;2023-04-28T09:42:31;0.50;;;0.50;;
77678;SDS011;66835;49.478;10.724;2023-04-28T09:44:58;0.52;;;0.50;;
77678;SDS011;66835;49.478;10.724;2023-04-28T09:47:24;0.52;;;0.50;;
77678;SDS011;66835;49.478;10.724;2023-04-28T09:49:53;0.43;;;0.43;;
77678;SDS011;66835;49.478;10.724;2023-04-28T09:52:20;0.47;;;0.47;;
77678;SDS011;66835;49.478;10.724;2023-04-28T09:54:45;0.50;;;0.50;;
77678;SDS011;66835;49.478;10.724;2023-04-28T09:57:14;0.40;;;0.40;;
77678;SDS011;66835;49.478;10.724;2023-04-28T09:59:41;0.50;;;0.50;;
77678;SDS011;66835;49.478;10.724;2023-04-28T10:02:07;0.40;;;0.40;;
77678;SDS011;66835;49.478;10.724;2023-04-28T10:04:33;0.50;;;0.50;;
77678;SDS011;66835;49.478;10.724;2023-04-28T10:06:58;0.50;;;0.50;;
77678;SDS011;66835;49.478;10.724;2023-04-28T10:09:25;0.65;;;0.50;;
77678;SDS011;66835;49.478;10.724;2023-04-28T10:11:52;0.43;;;0.43;;
77678;SDS011;66835;49.478;10.724;2023-04-28T10:14:19;0.40;;;0.40;;
77678;SDS011;66835;49.478;10.724;2023-04-28T10:16:45;0.30;;;0.30;;
77678;SDS011;66835;49.478;10.724;2023-04-28T10:19:11;0.55;;;0.43;;
77678;SDS011;66835;49.478;10.724;2023-04-28T10:21:38;0.52;;;0.52;;
77678;SDS011;66835;49.478;10.724;2023-04-28T10:29:24;0.40;;;0.40;;
77678;SDS011;66835;49.478;10.724;2023-04-28T10:34:47;0.32;;;0.32;;
77678;SDS011;66835;49.478;10.724;2023-04-28T10:37:13;0.30;;;0.30;;
77678;SDS011;66835;49.478;10.724;2023-04-28T10:39:39;0.32;;;0.32;;
77678;SDS011;66835;49.478;10.724;2023-04-28T10:42:05;0.40;;;0.40;;
77678;SDS011;66835;49.478;10.724;2023-04-28T10:45:16;0.50;;;0.50;;
77678;SDS011;66835;49.478;10.724;2023-04-28T10:48:21;0.40;;;0.40;;
77678;SDS011;66835;49.478;10.724;2023-04-28T10:51:01;0.32;;;0.32;;
77678;SDS011;66835;49.478;10.724;2023-04-28T10:56:34;0.45;;;0.45;;
77678;SDS011;66835;49.478;10.724;2023-04-28T10:58:59;0.40;;;0.40;;
77678;SDS011;66835;49.478;10.724;2023-04-28T11:01:27;0.40;;;0.40;;
77678;SDS011;66835;49.478;10.724;2023-04-28T11:03:54;0.40;;;0.40;;
77678;SDS011;66835;49.478;10.724;2023-04-28T11:06:24;0.30;;;0.30;;
77678;SDS011;66835;49.478;10.724;2023-04-28T11:08:52;0.55;;;0.40;;
77678;SDS011;66835;49.478;10.724;2023-04-28T11:11:20;0.30;;;0.30;;
77678;SDS011;66835;49.478;10.724;2023-04-28T11:13:47;0.40;;;0.40;;
77678;SDS011;66835;49.478;10.724;2023-04-28T11:16:13;0.43;;;0.43;;
77678;SDS011;66835;49.478;10.724;2023-04-28T11:18:51;0.30;;;0.30;;
77678;SDS011;66835;49.478;10.724;2023-04-28T11:21:22;0.40;;;0.40;;
77678;SDS011;66835;49.478;10.724;2023-04-28T11:23:48;0.40;;;0.40;;
77678;SDS011;66835;49.478;10.724;2023-04-28T11:26:13;0.25;;;0.25;;
77678;SDS011;66835;49.478;10.724;2023-04-28T11:31:23;0.28;;;0.28;;
77678;SDS011;66835;49.478;10.724;2023-04-28T11:33:55;0.30;;;0.30;;
77678;SDS011;66835;49.478;10.724;2023-04-28T11:36:26;0.30;;;0.30;;
77678;SDS011;66835;49.478;10.724;2023-04-28T11:38:52;0.30;;;0.30;;
77678;SDS011;66835;49.478;10.724;2023-04-28T11:41:18;0.52;;;0.28;;
77678;SDS011;66835;49.478;10.724;2023-04-28T11:43:43;0.40;;;0.40;;
77678;SDS011;66835;49.478;10.724;2023-04-28T11:46:09;0.30;;;0.30;;
77678;SDS011;66835;49.478;10.724;2023-04-28T11:48:34;0.40;;;0.40;;
77678;SDS011;66835;49.478;10.724;2023-04-28T11:51:01;0.40;;;0.40;;
77678;SDS011;66835;49.478;10.724;2023-04-28T11:53:39;0.30;;;0.30;;
77678;SDS011;66835;49.478;10.724;2023-04-28T11:56:05;0.30;;;0.30;;
77678;SDS011;66835;49.478;10.724;2023-04-28T11:58:33;0.38;;;0.38;;
77678;SDS011;66835;49.478;10.724;2023-04-28T12:01:05;0.40;;;0.40;;
77678;SDS011;66835;49.478;10.724;2023-04-28T12:03:31;0.40;;;0.40;;
77678;SDS011;66835;49.478;10.724;2023-04-28T12:05:57;0.47;;;0.47;;
77678;SDS011;66835;49.478;10.724;2023-04-28T12:08:27;0.40;;;0.40;;
77678;SDS011;66835;49.478;10.724;2023-04-28T12:11:05;0.20;;;0.20;;
77678;SDS011;66835;49.478;10.724;2023-04-28T12:13:32;0.40;;;0.40;;
77678;SDS011;66835;49.478;10.724;2023-04-28T12:15:57;0.20;;;0.20;;
77678;SDS011;66835;49.478;10.724;2023-04-28T12:18:25;0.40;;;0.40;;
77678;SDS011;66835;49.478;10.724;2023-04-28T12:20:50;0.30;;;0.30;;
77678;SDS011;66835;49.478;10.724;2023-04-28T12:23:28;0.20;;;0.20;;
77678;SDS011;66835;49.478;10.724;2023-04-28T12:25:55;0.30;;;0.30;;
77678;SDS011;66835;49.478;10.724;2023-04-28T12:28:20;0.40;;;0.40;;
77678;SDS011;66835;49.478;10.724;2023-04-28T12:30:46;0.20;;;0.20;;
77678;SDS011;66835;49.478;10.724;2023-04-28T12:33:21;0.30;;;0.30;;
77678;SDS011;66835;49.478;10.724;2023-04-28T12:35:47;0.20;;;0.20;;
77678;SDS011;66835;49.478;10.724;2023-04-28T12:38:13;0.22;;;0.22;;
77678;SDS011;66835;49.478;10.724;2023-04-28T12:40:41;0.25;;;0.25;;
77678;SDS011;66835;49.478;10.724;2023-04-28T12:43:06;0.22;;;0.22;;
77678;SDS011;66835;49.478;10.724;2023-04-28T12:45:31;0.22;;;0.22;;
77678;SDS011;66835;49.478;10.724;2023-04-28T12:47:58;0.25;;;0.22;;
77678;SDS011;66835;49.478;10.724;2023-04-28T12:50:23;0.22;;;0.22;;
77678;SDS011;66835;49.478;10.724;2023-04-28T12:52:49;0.25;;;0.25;;
77678;SDS011;66835;49.478;10.724;2023-04-28T12:55:15;0.20;;;0.20;;
77678;SDS011;66835;49.478;10.724;2023-04-28T12:57:42;0.20;;;0.20;;
77678;SDS011;66835;49.478;10.724;2023-04-28T13:00:07;0.30;;;0.30;;
77678;SDS011;66835;49.478;10.724;2023-04-28T13:02:34;0.30;;;0.30;;
77678;SDS011;66835;49.478;10.724;2023-04-28T13:04:59;0.30;;;0.30;;
77678;SDS011;66835;49.478;10.724;2023-04-28T13:07:25;0.20;;;0.20;;
77678;SDS011;66835;49.478;10.724;2023-04-28T13:09:51;0.20;;;0.20;;
77678;SDS011;66835;49.478;10.724;2023-04-28T13:12:17;0.22;;;0.22;;
77678;SDS011;66835;49.478;10.724;2023-04-28T13:14:43;0.20;;;0.20;;
77678;SDS011;66835;49.478;10.724;2023-04-28T13:17:09;0.20;;;0.20;;
77678;SDS011;66835;49.478;10.724;2023-04-28T13:19:35;0.30;;;0.30;;
77678;SDS011;66835;49.478;10.724;2023-04-28T13:22:00;0.20;;;0.20;;
77678;SDS011;66835;49.478;10.724;2023-04-28T13:24:29;0.40;;;0.40;;
77678;SDS011;66835;49.478;10.724;2023-04-28T13:26:54;0.35;;;0.35;;
77678;SDS011;66835;49.478;10.724;2023-04-28T13:29:20;0.30;;;0.30;;
77678;SDS011;66835;49.478;10.724;2023-04-28T13:31:46;0.20;;;0.20;;
77678;SDS011;66835;49.478;10.724;2023-04-28T13:34:12;0.20;;;0.20;;
77678;SDS011;66835;49.478;10.724;2023-04-28T13:36:40;0.30;;;0.30;;
77678;SDS011;66835;49.478;10.724;2023-04-28T13:39:05;0.30;;;0.30;;
77678;SDS011;66835;49.478;10.724;2023-04-28T13:41:35;0.20;;;0.20;;
77678;SDS011;66835;49.478;10.724;2023-04-28T13:44:00;0.20;;;0.20;;
77678;SDS011;66835;49.478;10.724;2023-04-28T13:46:26;0.40;;;0.40;;
77678;SDS011;66835;49.478;10.724;2023-04-28T13:48:52;0.20;;;0.20;;
77678;SDS011;66835;49.478;10.724;2023-04-28T13:51:18;0.25;;;0.25;;
77678;SDS011;66835;49.478;10.724;2023-04-28T13:53:44;0.20;;;0.20;;
77678;SDS011;66835;49.478;10.724;2023-04-28T13:56:09;0.20;;;0.20;;
77678;SDS011;66835;49.478;10.724;2023-04-28T13:58:35;0.20;;;0.20;;
77678;SDS011;66835;49.478;10.724;2023-04-28T14:01:00;0.25;;;0.25;;
77678;SDS011;66835;49.478;10.724;2023-04-28T14:03:27;0.30;;;0.30;;
77678;SDS011;66835;49.478;10.724;2023-04-28T14:05:55;0.20;;;0.20;;
77678;SDS011;66835;49.478;10.724;2023-04-28T14:08:21;0.20;;;0.20;;
77678;SDS011;66835;49.478;10.724;2023-04-28T14:10:46;0.28;;;0.28;;
77678;SDS011;66835;49.478;10.724;2023-04-28T14:13:12;0.20;;;0.20;;
77678;SDS011;66835;49.478;10.724;2023-04-28T14:15:37;0.30;;;0.30;;
77678;SDS011;66835;49.478;10.724;2023-04-28T14:18:04;0.22;;;0.22;;
77678;SDS011;66835;49.478;10.724;2023-04-28T14:20:30;0.25;;;0.25;;
77678;SDS011;66835;49.478;10.724;2023-04-28T14:22:57;0.20;;;0.20;;
77678;SDS011;66835;49.478;10.724;2023-04-28T14:25:23;0.22;;;0.22;;
77678;SDS011;66835;49.478;10.724;2023-04-28T14:27:49;0.25;;;0.25;;
77678;SDS011;66835;49.478;10.724;2023-04-28T14:30:15;0.32;;;0.32;;
77678;SDS011;66835;49.478;10.724;2023-04-28T14:32:41;0.30;;;0.30;;
77678;SDS011;66835;49.478;10.724;2023-04-28T14:35:07;0.20;;;0.20;;
77678;SDS011;66835;49.478;10.724;2023-04-28T14:37:33;0.30;;;0.30;;
77678;SDS011;66835;49.478;10.724;2023-04-28T14:40:00;0.20;;;0.20;;
77678;SDS011;66835;49.478;10.724;2023-04-28T14:42:26;0.40;;;0.40;;